createdAt,value
2023-04-18T09:50:40.356Z,2.50
2023-04-18T09:53:10.897Z,2.20
2023-04-18T09:55:41.691Z,2.50
2023-04-18T09:58:11.550Z,2.30
2023-04-18T10:00:40.675Z,2.50
2023-04-18T10:03:11.084Z,3.60
2023-04-18T10:05:41.547Z,2.40
2023-04-18T10:08:10.982Z,2.50
2023-04-18T10:10:39.888Z,2.30
2023-04-18T10:13:11.291Z,2.60
2023-04-18T10:15:41.757Z,3.60
2023-04-18T10:18:18.660Z,2.40
2023-04-18T10:20:47.265Z,2.30
2023-04-18T10:23:40.451Z,2.00
2023-04-18T10:26:10.748Z,2.10
2023-04-18T10:29:00.935Z,2.50
2023-04-18T10:31:30.166Z,3.40
2023-04-18T10:34:05.428Z,2.90
2023-04-18T10:36:34.757Z,3.00
2023-04-18T10:39:23.529Z,2.10
2023-04-18T10:41:51.921Z,2.10
2023-04-18T10:44:24.617Z,2.40
2023-04-18T10:46:58.453Z,2.20
2023-04-18T10:49:34.311Z,1.90
2023-04-18T10:52:06.165Z,2.50
2023-04-18T10:54:42.060Z,2.20
2023-04-18T10:57:13.893Z,1.90
2023-04-18T10:59:44.868Z,2.00
2023-04-18T11:02:30.899Z,2.30
2023-04-18T11:05:02.684Z,2.30
2023-04-18T11:07:46.404Z,2.00
2023-04-18T11:10:20.492Z,2.10
2023-04-18T11:12:49.140Z,1.90
2023-04-18T11:15:22.352Z,1.80
2023-04-18T11:18:10.420Z,2.00
2023-04-18T11:20:48.954Z,1.70
2023-04-18T11:23:25.684Z,2.10
2023-04-18T11:25:56.689Z,2.10
2023-04-18T11:28:32.559Z,2.30
2023-04-18T11:31:03.030Z,2.50
2023-04-18T11:33:31.385Z,1.80
2023-04-18T11:35:59.922Z,2.00
2023-04-18T11:38:34.655Z,1.90
2023-04-18T11:41:03.141Z,2.80
2023-04-18T11:43:31.563Z,1.90
2023-04-18T11:46:00.362Z,2.00
2023-04-18T11:48:43.018Z,2.20
2023-04-18T11:51:55.363Z,1.90
2023-04-18T11:54:41.229Z,2.60
2023-04-18T11:57:45.920Z,2.00
2023-04-18T12:00:15.119Z,1.60
2023-04-18T12:02:48.975Z,2.30
2023-04-18T12:05:29.417Z,2.80
2023-04-18T12:08:19.046Z,2.00
2023-04-18T12:10:57.028Z,2.40
2023-04-18T12:13:27.511Z,2.10
2023-04-18T12:15:56.252Z,2.10
2023-04-18T12:18:24.890Z,2.10
2023-04-18T12:20:56.971Z,2.00
2023-04-18T12:23:46.151Z,2.40
2023-04-18T12:26:28.724Z,2.10
2023-04-18T12:28:58.429Z,2.40
2023-04-18T12:31:28.833Z,1.70
2023-04-18T12:34:00.305Z,2.80
2023-04-18T12:36:28.841Z,2.00
2023-04-18T12:38:57.076Z,2.00
2023-04-18T12:41:25.631Z,2.00
2023-04-18T12:43:53.908Z,2.10
2023-04-18T12:46:22.322Z,2.50
2023-04-18T12:48:50.752Z,2.00
2023-04-18T12:51:18.999Z,2.50
2023-04-18T12:53:56.510Z,1.70
2023-04-18T12:56:24.931Z,2.20
2023-04-18T12:58:53.164Z,2.10
2023-04-18T13:01:21.504Z,2.30
2023-04-18T13:03:59.890Z,2.50
2023-04-18T13:06:37.842Z,2.30
2023-04-18T13:09:06.165Z,2.00
2023-04-18T13:11:34.538Z,2.40
2023-04-18T13:14:02.826Z,2.10
2023-04-18T13:16:31.434Z,2.20
2023-04-18T13:18:59.897Z,2.30
2023-04-18T13:21:28.319Z,2.20
2023-04-18T13:23:56.646Z,2.30
2023-04-18T13:26:25.209Z,2.00
2023-04-18T13:28:54.764Z,2.60
2023-04-18T13:34:17.738Z,2.30
2023-04-18T13:36:45.931Z,2.30
2023-04-18T13:39:15.377Z,2.10
2023-04-18T13:41:43.794Z,2.30
2023-04-18T13:44:12.142Z,2.10
2023-04-18T13:46:40.825Z,2.30
2023-04-18T13:49:09.022Z,2.50
2023-04-18T13:51:37.386Z,2.50
2023-04-18T13:54:05.728Z,2.60
2023-04-18T13:56:34.313Z,2.10
2023-04-18T13:59:02.635Z,2.30
2023-04-18T14:01:31.157Z,2.10
2023-04-18T14:03:59.498Z,2.40
2023-04-18T14:06:27.981Z,2.50
2023-04-18T14:08:56.162Z,2.60
2023-04-18T14:11:24.345Z,2.10
2023-04-18T14:13:52.713Z,2.20
2023-04-18T14:16:28.364Z,2.10
2023-04-18T14:18:57.296Z,2.10
2023-04-18T14:21:26.604Z,2.30
2023-04-18T14:23:54.855Z,2.70
2023-04-18T14:26:23.051Z,2.50
2023-04-18T14:28:51.336Z,2.10
2023-04-18T14:31:19.726Z,2.20
2023-04-18T14:33:48.142Z,2.00
2023-04-18T14:36:16.953Z,2.10
2023-04-18T14:38:48.678Z,2.20
2023-04-18T14:41:16.819Z,2.30
2023-04-18T14:43:45.093Z,2.10
2023-04-18T14:46:16.804Z,2.30
2023-04-18T14:48:48.538Z,2.20
2023-04-18T14:51:17.134Z,2.30
2023-04-18T14:53:45.804Z,2.00
2023-04-18T14:56:14.875Z,2.60
2023-04-18T14:58:52.771Z,2.30
2023-04-18T15:01:21.178Z,2.30
2023-04-18T15:03:51.493Z,2.00
2023-04-18T15:06:19.965Z,2.50
2023-04-18T15:08:48.171Z,2.20
2023-04-18T15:11:16.421Z,2.40
2023-04-18T15:13:44.829Z,2.10
2023-04-18T15:16:13.325Z,2.00
2023-04-18T15:18:41.623Z,2.50
2023-04-18T15:21:09.766Z,2.10
2023-04-18T15:23:38.096Z,2.40
2023-04-18T15:26:06.550Z,2.40
2023-04-18T15:28:34.952Z,2.80
2023-04-18T15:31:03.285Z,2.30
2023-04-18T15:33:31.616Z,2.40
2023-04-18T15:36:00.076Z,2.90
2023-04-18T15:38:28.397Z,2.70
2023-04-18T15:40:56.784Z,3.00
2023-04-18T15:43:31.263Z,2.40
2023-04-18T15:46:01.629Z,4.40
2023-04-18T15:48:34.129Z,3.80
2023-04-18T15:53:30.608Z,2.20
2023-04-18T15:56:01.881Z,2.70
2023-04-18T15:58:30.473Z,2.50
2023-04-18T16:00:58.871Z,2.90
2023-04-18T16:03:27.479Z,2.80
2023-04-18T16:05:55.826Z,2.50
2023-04-18T16:08:24.030Z,3.50
2023-04-18T16:10:53.429Z,3.20
2023-04-18T16:13:21.625Z,3.40
2023-04-18T16:15:50.034Z,2.50
2023-04-18T16:18:18.329Z,3.20
2023-04-18T16:20:47.373Z,4.20
2023-04-18T16:23:15.783Z,4.10
2023-04-18T16:25:43.989Z,3.40
2023-04-18T16:28:12.211Z,4.40
2023-04-18T16:30:43.852Z,3.30
2023-04-18T16:33:12.128Z,3.00
2023-04-18T16:35:46.967Z,2.80
2023-04-18T16:40:57.845Z,3.20
2023-04-18T16:43:38.314Z,3.00
2023-04-18T16:46:49.991Z,3.10
2023-04-18T16:49:27.774Z,2.70
2023-04-18T17:39:02.783Z,2.10
2023-04-18T17:52:49.154Z,2.60
2023-04-18T18:04:45.023Z,3.40
2023-04-18T18:07:37.013Z,4.00
2023-04-18T18:10:12.339Z,3.40
2023-04-18T18:12:42.855Z,3.90
2023-04-18T18:15:29.075Z,3.60
2023-04-18T18:18:29.109Z,3.10
2023-04-18T18:21:18.806Z,3.20
2023-04-18T18:24:00.143Z,2.70
2023-04-18T18:30:03.141Z,3.40
2023-04-18T18:32:52.093Z,4.20
2023-04-18T18:42:25.176Z,2.80
2023-04-18T18:54:14.473Z,3.10
2023-04-18T19:01:47.112Z,4.10
2023-04-18T19:04:19.232Z,4.60
2023-04-18T19:06:56.778Z,3.80
2023-04-18T19:16:40.361Z,2.90
2023-04-18T19:19:56.392Z,3.20
2023-04-18T19:22:35.254Z,2.90
2023-04-18T19:37:21.699Z,2.90
2023-04-18T19:43:42.767Z,2.50
2023-04-18T19:46:11.593Z,2.60
2023-04-18T19:48:40.131Z,2.20
2023-04-18T19:51:08.454Z,3.20
2023-04-18T19:53:36.889Z,2.40
2023-04-18T19:56:05.872Z,3.40
2023-04-18T19:58:40.408Z,3.50
2023-04-18T20:01:18.610Z,3.80
2023-04-18T20:03:48.386Z,3.70
2023-04-18T20:06:18.199Z,2.70
2023-04-18T20:08:46.658Z,2.70
2023-04-18T20:11:15.291Z,3.40
2023-04-18T20:13:47.193Z,3.40
2023-04-18T20:16:17.018Z,3.70
2023-04-18T20:18:55.110Z,2.50
2023-04-18T20:21:23.763Z,3.40
2023-04-18T20:23:52.349Z,2.50
2023-04-18T20:26:21.058Z,2.90
2023-04-18T20:28:57.008Z,2.80
2023-04-18T20:31:25.332Z,4.10
2023-04-18T20:33:56.041Z,2.60
2023-04-18T20:36:25.010Z,4.70
2023-04-18T20:38:53.585Z,3.20
2023-04-18T20:41:24.405Z,4.30
2023-04-18T20:43:55.113Z,4.40
2023-04-18T20:46:23.819Z,4.60
2023-04-18T20:48:52.291Z,3.40
2023-04-18T20:51:21.556Z,4.00
2023-04-18T20:53:50.013Z,4.20
2023-04-18T20:56:18.549Z,3.70
2023-04-18T20:58:47.709Z,3.00
2023-04-18T21:01:16.264Z,2.80
2023-04-18T21:03:44.916Z,4.40
2023-04-18T21:06:14.600Z,3.80
2023-04-18T21:08:43.027Z,4.80
2023-04-18T21:11:11.451Z,3.70
2023-04-18T21:13:39.896Z,4.20
2023-04-18T21:16:10.371Z,4.40
2023-04-18T21:18:38.973Z,2.50
2023-04-18T21:21:08.070Z,4.30
2023-04-18T21:23:42.188Z,2.90
2023-04-18T21:26:12.680Z,4.50
2023-04-18T21:29:01.728Z,4.60
2023-04-18T21:31:33.111Z,4.20
2023-04-18T21:34:04.395Z,3.40
2023-04-18T21:36:33.131Z,3.10
2023-04-18T21:39:01.730Z,3.70
2023-04-18T21:41:30.246Z,3.90
2023-04-18T21:43:58.716Z,4.70
2023-04-18T21:46:27.318Z,3.30
2023-04-18T21:48:55.961Z,5.70
2023-04-18T21:51:24.543Z,4.30
2023-04-18T21:53:53.914Z,2.80
2023-04-18T21:56:22.336Z,5.10
2023-04-18T21:58:50.751Z,5.10
2023-04-18T22:01:20.026Z,4.50
2023-04-18T22:03:48.769Z,4.20
2023-04-18T22:06:17.405Z,5.00
2023-04-18T22:08:45.778Z,4.20
2023-04-18T22:11:14.349Z,3.90
2023-04-18T22:13:45.183Z,3.80
2023-04-18T22:16:13.752Z,3.40
2023-04-18T22:18:43.130Z,4.60
2023-04-18T22:21:11.992Z,4.20
2023-04-18T22:23:40.393Z,5.20
2023-04-18T22:26:08.916Z,5.20
2023-04-18T22:28:37.455Z,3.10
2023-04-18T22:31:05.983Z,3.40
2023-04-18T22:33:35.266Z,5.10
2023-04-18T22:36:03.856Z,3.60
2023-04-18T22:38:32.525Z,4.90
2023-04-18T22:41:01.002Z,5.10
2023-04-18T22:43:30.448Z,4.30
2023-04-18T22:45:58.940Z,5.20
2023-04-18T22:48:27.369Z,3.80
2023-04-18T22:50:56.066Z,4.90
2023-04-18T22:53:25.171Z,4.40
2023-04-18T22:55:53.797Z,5.20
2023-04-18T22:58:22.305Z,4.90
2023-04-18T23:00:51.919Z,4.30
2023-04-18T23:03:20.682Z,4.70
2023-04-18T23:05:49.361Z,4.30
2023-04-18T23:08:22.776Z,3.20
2023-04-18T23:10:52.495Z,4.60
2023-04-18T23:13:24.717Z,2.70
2023-04-18T23:15:53.312Z,3.20
2023-04-18T23:18:21.639Z,4.70
2023-04-18T23:20:50.165Z,3.70
2023-04-18T23:23:18.566Z,3.10
2023-04-18T23:25:47.121Z,4.10
2023-04-18T23:28:17.279Z,3.10
2023-04-18T23:30:48.189Z,3.70
2023-04-18T23:33:17.234Z,3.50
2023-04-18T23:35:45.693Z,3.80
2023-04-18T23:38:15.034Z,5.10
2023-04-18T23:40:43.870Z,4.10
2023-04-18T23:43:12.347Z,3.60
2023-04-18T23:45:40.926Z,4.00
2023-04-18T23:48:09.524Z,4.30
2023-04-18T23:50:38.358Z,3.90
2023-04-18T23:53:07.433Z,3.50
2023-04-18T23:55:35.836Z,4.20
2023-04-18T23:58:05.316Z,3.90
